sensor_id;sensor_type;location;lat;lon;timestamp;pressure;altitude;pressure_sealevel;temperature;humidity
71043;BME280;58696;52.134;5.500;2023-06-22T00:01:22;102080.78;;;17.01;84.63
71043;BME280;58696;52.134;5.500;2023-06-22T00:03:49;102078.81;;;17.10;85.31
71043;BME280;58696;52.134;5.500;2023-06-22T00:06:16;102067.06;;;17.14;85.43
71043;BME280;58696;52.134;5.500;2023-06-22T00:08:43;102083.22;;;17.16;85.52
71043;BME280;58696;52.134;5.500;2023-06-22T00:11:12;102084.88;;;17.24;85.23
71043;BME280;58696;52.134;5.500;2023-06-22T00:13:41;102086.25;;;17.20;84.62
71043;BME280;58696;52.134;5.500;2023-06-22T00:16:10;102086.81;;;17.08;84.62
71043;BME280;58696;52.134;5.500;2023-06-22T00:18:36;102080.81;;;17.08;85.12
71043;BME280;58696;52.134;5.500;2023-06-22T00:21:03;102081.78;;;17.00;84.98
71043;BME280;58696;52.134;5.500;2023-06-22T00:23:35;102069.34;;;16.89;85.18
71043;BME280;58696;52.134;5.500;2023-06-22T00:26:02;102079.28;;;16.79;84.95
71043;BME280;58696;52.134;5.500;2023-06-22T00:28:28;102076.41;;;16.67;85.97
71043;BME280;58696;52.134;5.500;2023-06-22T00:30:57;102071.41;;;16.66;86.88
71043;BME280;58696;52.134;5.500;2023-06-22T00:33:26;102062.25;;;16.70;87.51
71043;BME280;58696;52.134;5.500;2023-06-22T00:35:54;102061.69;;;16.74;87.18
71043;BME280;58696;52.134;5.500;2023-06-22T00:38:23;102054.31;;;16.78;87.47
71043;BME280;58696;52.134;5.500;2023-06-22T00:40:50;102053.31;;;16.79;87.28
71043;BME280;58696;52.134;5.500;2023-06-22T00:43:19;102057.53;;;16.80;87.40
71043;BME280;58696;52.134;5.500;2023-06-22T00:45:51;102052.91;;;16.75;87.44
71043;BME280;58696;52.134;5.500;2023-06-22T00:48:20;102057.31;;;16.75;87.33
71043;BME280;58696;52.134;5.500;2023-06-22T00:50:46;102051.44;;;16.66;86.55
71043;BME280;58696;52.134;5.500;2023-06-22T00:53:19;102053.16;;;16.52;86.31
71043;BME280;58696;52.134;5.500;2023-06-22T00:55:48;102057.50;;;16.45;86.32
71043;BME280;58696;52.134;5.500;2023-06-22T00:58:18;102057.50;;;16.45;86.35
71043;BME280;58696;52.134;5.500;2023-06-22T01:00:48;102062.91;;;16.44;86.43
71043;BME280;58696;52.134;5.500;2023-06-22T01:03:17;102055.31;;;16.42;87.02
71043;BME280;58696;52.134;5.500;2023-06-22T01:05:44;102047.31;;;16.44;86.84
71043;BME280;58696;52.134;5.500;2023-06-22T01:08:29;102049.28;;;16.42;86.05
71043;BME280;58696;52.134;5.500;2023-06-22T01:11:19;102053.84;;;16.33;85.83
71043;BME280;58696;52.134;5.500;2023-06-22T01:13:58;102057.78;;;16.22;86.30
71043;BME280;58696;52.134;5.500;2023-06-22T01:16:30;102061.25;;;16.08;86.57
71043;BME280;58696;52.134;5.500;2023-06-22T01:19:00;102061.50;;;15.92;86.84
71043;BME280;58696;52.134;5.500;2023-06-22T01:21:28;102059.19;;;15.75;88.65
71043;BME280;58696;52.134;5.500;2023-06-22T01:24:10;102057.38;;;15.76;89.29
71043;BME280;58696;52.134;5.500;2023-06-22T01:26:57;102053.84;;;15.77;89.97
71043;BME280;58696;52.134;5.500;2023-06-22T01:29:27;102051.50;;;15.82;90.05
71043;BME280;58696;52.134;5.500;2023-06-22T01:31:56;102056.09;;;15.87;89.87
71043;BME280;58696;52.134;5.500;2023-06-22T01:34:24;102050.78;;;15.95;89.55
71043;BME280;58696;52.134;5.500;2023-06-22T01:36:52;102057.38;;;15.97;88.19
71043;BME280;58696;52.134;5.500;2023-06-22T01:39:19;102056.28;;;15.85;88.15
71043;BME280;58696;52.134;5.500;2023-06-22T01:41:52;102053.75;;;15.70;88.29
71043;BME280;58696;52.134;5.500;2023-06-22T01:44:20;102050.13;;;15.65;88.56
71043;BME280;58696;52.134;5.500;2023-06-22T01:46:49;102049.41;;;15.56;88.81
71043;BME280;58696;52.134;5.500;2023-06-22T01:49:18;102044.00;;;15.51;89.65
71043;BME280;58696;52.134;5.500;2023-06-22T01:51:53;102040.59;;;15.50;90.23
71043;BME280;58696;52.134;5.500;2023-06-22T01:54:24;102044.19;;;15.49;90.64
71043;BME280;58696;52.134;5.500;2023-06-22T01:56:51;102044.41;;;15.55;90.17
71043;BME280;58696;52.134;5.500;2023-06-22T01:59:20;102043.25;;;15.57;90.06
71043;BME280;58696;52.134;5.500;2023-06-22T02:02:09;102039.84;;;15.57;89.52
71043;BME280;58696;52.134;5.500;2023-06-22T02:04:46;102036.81;;;15.53;89.18
71043;BME280;58696;52.134;5.500;2023-06-22T02:07:17;102036.41;;;15.49;89.82
71043;BME280;58696;52.134;5.500;2023-06-22T02:09:48;102029.59;;;15.48;90.49
71043;BME280;58696;52.134;5.500;2023-06-22T02:12:22;102031.22;;;15.49;90.82
71043;BME280;58696;52.134;5.500;2023-06-22T02:20:44;102034.06;;;15.33;89.56
71043;BME280;58696;52.134;5.500;2023-06-22T02:23:13;102031.38;;;15.26;90.46
71043;BME280;58696;52.134;5.500;2023-06-22T02:25:39;102032.81;;;15.29;91.17
71043;BME280;58696;52.134;5.500;2023-06-22T02:28:06;102031.88;;;15.37;91.35
71043;BME280;58696;52.134;5.500;2023-06-22T02:30:33;102035.16;;;15.45;90.78
71043;BME280;58696;52.134;5.500;2023-06-22T02:32:59;102026.94;;;15.42;90.00
71043;BME280;58696;52.134;5.500;2023-06-22T02:35:27;102029.66;;;15.34;89.16
71043;BME280;58696;52.134;5.500;2023-06-22T02:38:01;102031.81;;;15.30;89.45
71043;BME280;58696;52.134;5.500;2023-06-22T02:40:31;102020.22;;;15.26;89.56
71043;BME280;58696;52.134;5.500;2023-06-22T02:42:58;102027.31;;;15.17;88.82
71043;BME280;58696;52.134;5.500;2023-06-22T02:45:28;102032.59;;;15.09;88.62
71043;BME280;58696;52.134;5.500;2023-06-22T02:47:55;102035.38;;;15.08;88.99
71043;BME280;58696;52.134;5.500;2023-06-22T02:50:22;102024.00;;;15.09;88.34
71043;BME280;58696;52.134;5.500;2023-06-22T02:52:49;102017.59;;;15.05;88.17
71043;BME280;58696;52.134;5.500;2023-06-22T02:55:16;102027.06;;;14.97;88.49
71043;BME280;58696;52.134;5.500;2023-06-22T02:57:42;102026.56;;;14.87;88.40
71043;BME280;58696;52.134;5.500;2023-06-22T03:00:13;102016.66;;;14.91;88.78
71043;BME280;58696;52.134;5.500;2023-06-22T03:02:47;102031.38;;;14.90;89.08
71043;BME280;58696;52.134;5.500;2023-06-22T03:05:17;102022.63;;;14.91;89.34
71043;BME280;58696;52.134;5.500;2023-06-22T03:07:49;102023.06;;;14.95;89.24
71043;BME280;58696;52.134;5.500;2023-06-22T03:10:20;102018.50;;;14.97;89.26
71043;BME280;58696;52.134;5.500;2023-06-22T03:12:49;102022.63;;;14.91;89.10
71043;BME280;58696;52.134;5.500;2023-06-22T03:15:18;102029.75;;;14.89;89.84
71043;BME280;58696;52.134;5.500;2023-06-22T03:17:48;102033.06;;;14.98;89.49
71043;BME280;58696;52.134;5.500;2023-06-22T03:20:15;102029.06;;;14.95;89.03
71043;BME280;58696;52.134;5.500;2023-06-22T03:22:41;102025.41;;;14.90;88.67
71043;BME280;58696;52.134;5.500;2023-06-22T03:25:09;102026.28;;;14.82;88.82
71043;BME280;58696;52.134;5.500;2023-06-22T03:27:44;102013.53;;;14.81;89.18
71043;BME280;58696;52.134;5.500;2023-06-22T03:30:14;102018.34;;;14.84;90.14
71043;BME280;58696;52.134;5.500;2023-06-22T03:32:48;102008.81;;;14.84;90.59
71043;BME280;58696;52.134;5.500;2023-06-22T03:35:14;101997.28;;;14.87;91.52
71043;BME280;58696;52.134;5.500;2023-06-22T03:37:41;102007.09;;;14.91;91.70
71043;BME280;58696;52.134;5.500;2023-06-22T03:40:10;102010.56;;;14.84;92.02
71043;BME280;58696;52.134;5.500;2023-06-22T03:42:37;102005.59;;;14.82;91.93
71043;BME280;58696;52.134;5.500;2023-06-22T03:45:06;102008.97;;;14.83;91.34
71043;BME280;58696;52.134;5.500;2023-06-22T03:47:35;102011.16;;;14.79;90.85
71043;BME280;58696;52.134;5.500;2023-06-22T03:50:02;102009.63;;;14.70;90.53
71043;BME280;58696;52.134;5.500;2023-06-22T03:52:32;101998.03;;;14.66;90.77
71043;BME280;58696;52.134;5.500;2023-06-22T03:55:01;101990.91;;;14.68;90.92
71043;BME280;58696;52.134;5.500;2023-06-22T03:57:28;101988.31;;;14.68;90.51
71043;BME280;58696;52.134;5.500;2023-06-22T03:59:56;101994.38;;;14.60;90.43
71043;BME280;58696;52.134;5.500;2023-06-22T04:02:25;101994.09;;;14.55;90.80
71043;BME280;58696;52.134;5.500;2023-06-22T04:04:54;101994.19;;;14.62;91.94
71043;BME280;58696;52.134;5.500;2023-06-22T04:07:23;101988.81;;;14.78;93.14
71043;BME280;58696;52.134;5.500;2023-06-22T04:09:52;101988.72;;;14.86;93.74
71043;BME280;58696;52.134;5.500;2023-06-22T04:12:22;101996.56;;;14.93;93.90
71043;BME280;58696;52.134;5.500;2023-06-22T04:14:50;101987.63;;;14.95;93.94
71043;BME280;58696;52.134;5.500;2023-06-22T04:17:17;101993.06;;;15.01;93.88
71043;BME280;58696;52.134;5.500;2023-06-22T04:19:45;101987.69;;;15.02;93.45
71043;BME280;58696;52.134;5.500;2023-06-22T04:22:14;101980.25;;;15.14;93.69
71043;BME280;58696;52.134;5.500;2023-06-22T04:24:43;101982.00;;;15.28;92.52
71043;BME280;58696;52.134;5.500;2023-06-22T04:27:10;101981.63;;;15.31;91.87
71043;BME280;58696;52.134;5.500;2023-06-22T04:29:38;101980.63;;;15.32;91.06
71043;BME280;58696;52.134;5.500;2023-06-22T04:32:14;101984.84;;;15.33;91.31
71043;BME280;58696;52.134;5.500;2023-06-22T04:34:42;101987.28;;;15.41;90.75
71043;BME280;58696;52.134;5.500;2023-06-22T04:37:10;101991.13;;;15.45;91.54
71043;BME280;58696;52.134;5.500;2023-06-22T04:39:44;101987.41;;;15.55;91.84
71043;BME280;58696;52.134;5.500;2023-06-22T04:42:15;101983.53;;;15.65;91.76
71043;BME280;58696;52.134;5.500;2023-06-22T04:44:42;101984.00;;;15.75;91.81
71043;BME280;58696;52.134;5.500;2023-06-22T04:47:11;101984.13;;;15.89;91.63
71043;BME280;58696;52.134;5.500;2023-06-22T04:49:40;101988.78;;;16.00;91.53
71043;BME280;58696;52.134;5.500;2023-06-22T04:52:11;101982.13;;;16.19;91.91
71043;BME280;58696;52.134;5.500;2023-06-22T04:54:46;101990.81;;;16.39;91.13
71043;BME280;58696;52.134;5.500;2023-06-22T04:57:26;101985.09;;;16.57;90.25
71043;BME280;58696;52.134;5.500;2023-06-22T04:59:59;101986.34;;;16.68;89.79
71043;BME280;58696;52.134;5.500;2023-06-22T05:02:38;101985.50;;;17.02;89.28
71043;BME280;58696;52.134;5.500;2023-06-22T05:05:08;101989.94;;;18.07;87.15
71043;BME280;58696;52.134;5.500;2023-06-22T05:07:35;101989.75;;;18.74;83.02
71043;BME280;58696;52.134;5.500;2023-06-22T05:10:03;101985.09;;;19.21;80.14
71043;BME280;58696;52.134;5.500;2023-06-22T05:12:32;101998.97;;;19.89;77.97
71043;BME280;58696;52.134;5.500;2023-06-22T05:15:01;101992.66;;;20.89;74.94
71043;BME280;58696;52.134;5.500;2023-06-22T05:17:30;101993.84;;;21.05;72.14
71043;BME280;58696;52.134;5.500;2023-06-22T05:19:57;101983.06;;;21.13;72.80
71043;BME280;58696;52.134;5.500;2023-06-22T05:22:23;101985.53;;;21.38;70.70
71043;BME280;58696;52.134;5.500;2023-06-22T05:24:50;101985.84;;;21.30;71.20
71043;BME280;58696;52.134;5.500;2023-06-22T05:27:24;101977.13;;;21.59;70.33
71043;BME280;58696;52.134;5.500;2023-06-22T05:29:51;101986.72;;;22.29;68.54
71043;BME280;58696;52.134;5.500;2023-06-22T05:32:20;101984.56;;;22.66;66.32
71043;BME280;58696;52.134;5.500;2023-06-22T05:34:47;101989.81;;;22.66;66.82
71043;BME280;58696;52.134;5.500;2023-06-22T05:37:16;101987.34;;;23.05;66.17
71043;BME280;58696;52.134;5.500;2023-06-22T05:39:42;101994.94;;;23.35;64.92
71043;BME280;58696;52.134;5.500;2023-06-22T05:42:14;101990.66;;;23.63;65.95
71043;BME280;58696;52.134;5.500;2023-06-22T05:44:43;101988.44;;;24.86;60.50
71043;BME280;58696;52.134;5.500;2023-06-22T05:47:09;101991.56;;;24.56;61.00
71043;BME280;58696;52.134;5.500;2023-06-22T05:49:36;101995.72;;;23.69;63.84
71043;BME280;58696;52.134;5.500;2023-06-22T05:52:03;101998.75;;;23.27;64.94
71043;BME280;58696;52.134;5.500;2023-06-22T05:54:32;102000.56;;;22.24;68.39
71043;BME280;58696;52.134;5.500;2023-06-22T05:56:58;101992.97;;;22.51;69.17
71043;BME280;58696;52.134;5.500;2023-06-22T05:59:27;101994.78;;;22.51;68.70
71043;BME280;58696;52.134;5.500;2023-06-22T06:01:56;101989.28;;;22.81;67.86
71043;BME280;58696;52.134;5.500;2023-06-22T06:04:23;101997.31;;;23.03;66.94
71043;BME280;58696;52.134;5.500;2023-06-22T06:06:52;101998.22;;;24.63;64.79
71043;BME280;58696;52.134;5.500;2023-06-22T06:09:23;101999.19;;;26.64;56.22
71043;BME280;58696;52.134;5.500;2023-06-22T06:11:52;101997.84;;;26.46;57.17
71043;BME280;58696;52.134;5.500;2023-06-22T06:14:19;101993.94;;;27.50;54.67
71043;BME280;58696;52.134;5.500;2023-06-22T06:16:46;101987.94;;;28.15;55.10
71043;BME280;58696;52.134;5.500;2023-06-22T06:19:12;101993.34;;;27.89;53.85
71043;BME280;58696;52.134;5.500;2023-06-22T06:21:39;101985.56;;;28.13;51.56
71043;BME280;58696;52.134;5.500;2023-06-22T06:24:08;101990.00;;;28.23;51.50
71043;BME280;58696;52.134;5.500;2023-06-22T06:26:37;101985.75;;;27.52;52.64
71043;BME280;58696;52.134;5.500;2023-06-22T06:29:04;101977.59;;;27.28;55.20
71043;BME280;58696;52.134;5.500;2023-06-22T06:31:34;101978.06;;;27.56;52.58
71043;BME280;58696;52.134;5.500;2023-06-22T06:34:00;101976.00;;;26.61;54.56
71043;BME280;58696;52.134;5.500;2023-06-22T06:36:27;101968.63;;;26.73;54.78
71043;BME280;58696;52.134;5.500;2023-06-22T06:38:55;101973.91;;;26.68;54.63
71043;BME280;58696;52.134;5.500;2023-06-22T06:41:22;101967.56;;;26.69;55.13
71043;BME280;58696;52.134;5.500;2023-06-22T06:43:54;101966.00;;;26.88;53.55
71043;BME280;58696;52.134;5.500;2023-06-22T06:46:20;101964.94;;;26.94;54.02
71043;BME280;58696;52.134;5.500;2023-06-22T06:48:49;101967.50;;;27.66;52.44
71043;BME280;58696;52.134;5.500;2023-06-22T06:51:16;101972.38;;;28.08;49.70
71043;BME280;58696;52.134;5.500;2023-06-22T06:53:42;101965.69;;;28.65;49.58
71043;BME280;58696;52.134;5.500;2023-06-22T06:56:09;101963.84;;;28.66;50.80
71043;BME280;58696;52.134;5.500;2023-06-22T06:58:37;101958.41;;;27.97;50.40
71043;BME280;58696;52.134;5.500;2023-06-22T07:01:06;101955.84;;;27.82;51.06
71043;BME280;58696;52.134;5.500;2023-06-22T07:03:33;101963.03;;;28.21;50.57
71043;BME280;58696;52.134;5.500;2023-06-22T07:06:00;101962.22;;;28.70;49.06
71043;BME280;58696;52.134;5.500;2023-06-22T07:08:31;101962.00;;;29.00;47.83
71043;BME280;58696;52.134;5.500;2023-06-22T07:11:01;101960.75;;;28.04;47.69
71043;BME280;58696;52.134;5.500;2023-06-22T07:13:28;101960.97;;;26.51;51.98
71043;BME280;58696;52.134;5.500;2023-06-22T07:15:55;101954.94;;;26.81;53.25
71043;BME280;58696;52.134;5.500;2023-06-22T07:18:24;101959.59;;;27.56;50.99
71043;BME280;58696;52.134;5.500;2023-06-22T07:20:54;101958.00;;;27.70;49.59
71043;BME280;58696;52.134;5.500;2023-06-22T07:23:23;101943.34;;;27.08;51.41
71043;BME280;58696;52.134;5.500;2023-06-22T07:25:56;101949.63;;;27.22;50.92
71043;BME280;58696;52.134;5.500;2023-06-22T07:28:23;101941.34;;;27.69;49.08
71043;BME280;58696;52.134;5.500;2023-06-22T07:30:52;101951.75;;;27.35;51.25
71043;BME280;58696;52.134;5.500;2023-06-22T07:33:23;101955.00;;;28.46;48.81
71043;BME280;58696;52.134;5.500;2023-06-22T07:35:52;101954.81;;;28.72;47.18
71043;BME280;58696;52.134;5.500;2023-06-22T07:38:26;101955.00;;;29.15;47.34
71043;BME280;58696;52.134;5.500;2023-06-22T07:40:55;101945.50;;;29.62;45.61
71043;BME280;58696;52.134;5.500;2023-06-22T07:43:22;101942.88;;;29.32;44.52
71043;BME280;58696;52.134;5.500;2023-06-22T07:45:49;101937.94;;;28.97;46.38
71043;BME280;58696;52.134;5.500;2023-06-22T07:48:22;101938.44;;;28.25;46.01
71043;BME280;58696;52.134;5.500;2023-06-22T07:50:49;101933.28;;;27.25;50.50
71043;BME280;58696;52.134;5.500;2023-06-22T07:53:19;101918.44;;;27.44;48.63
71043;BME280;58696;52.134;5.500;2023-06-22T07:55:46;101917.69;;;27.29;49.69
71043;BME280;58696;52.134;5.500;2023-06-22T07:58:15;101921.66;;;26.85;50.96
71043;BME280;58696;52.134;5.500;2023-06-22T08:00:42;101918.00;;;26.76;50.99
71043;BME280;58696;52.134;5.500;2023-06-22T08:03:11;101931.19;;;26.61;51.55
71043;BME280;58696;52.134;5.500;2023-06-22T08:05:40;101918.25;;;26.90;49.99
71043;BME280;58696;52.134;5.500;2023-06-22T08:08:06;101913.13;;;27.49;49.26
71043;BME280;58696;52.134;5.500;2023-06-22T08:10:35;101909.75;;;27.34;48.39
71043;BME280;58696;52.134;5.500;2023-06-22T08:13:02;101909.25;;;26.91;49.48
71043;BME280;58696;52.134;5.500;2023-06-22T08:15:31;101910.59;;;26.83;50.76
71043;BME280;58696;52.134;5.500;2023-06-22T08:17:58;101904.22;;;27.40;49.74
71043;BME280;58696;52.134;5.500;2023-06-22T08:20:30;101899.09;;;27.74;50.55
71043;BME280;58696;52.134;5.500;2023-06-22T08:22:59;101899.88;;;27.65;50.84
71043;BME280;58696;52.134;5.500;2023-06-22T08:25:37;101888.22;;;28.20;49.26
71043;BME280;58696;52.134;5.500;2023-06-22T08:28:04;101890.31;;;28.28;49.21
71043;BME280;58696;52.134;5.500;2023-06-22T08:30:31;101875.22;;;28.34;46.16
71043;BME280;58696;52.134;5.500;2023-06-22T08:32:58;101870.34;;;27.52;49.40
71043;BME280;58696;52.134;5.500;2023-06-22T08:35:25;101867.50;;;27.39;47.51
71043;BME280;58696;52.134;5.500;2023-06-22T08:37:52;101863.09;;;27.14;49.39
71043;BME280;58696;52.134;5.500;2023-06-22T08:40:21;101872.66;;;27.69;47.53
71043;BME280;58696;52.134;5.500;2023-06-22T08:42:48;101868.34;;;27.89;47.87
71043;BME280;58696;52.134;5.500;2023-06-22T08:45:19;101857.84;;;27.78;47.41
71043;BME280;58696;52.134;5.500;2023-06-22T08:47:46;101858.41;;;27.70;48.17
71043;BME280;58696;52.134;5.500;2023-06-22T08:50:15;101855.94;;;27.89;47.06
71043;BME280;58696;52.134;5.500;2023-06-22T08:52:42;101857.38;;;28.11;49.56
71043;BME280;58696;52.134;5.500;2023-06-22T08:55:09;101857.44;;;28.06;45.73
71043;BME280;58696;52.134;5.500;2023-06-22T08:57:36;101850.41;;;27.86;44.88
71043;BME280;58696;52.134;5.500;2023-06-22T09:00:08;101850.94;;;27.83;46.69
71043;BME280;58696;52.134;5.500;2023-06-22T09:02:46;101848.84;;;27.80;46.73
71043;BME280;58696;52.134;5.500;2023-06-22T09:05:14;101854.44;;;27.73;47.42
71043;BME280;58696;52.134;5.500;2023-06-22T09:07:41;101854.69;;;27.71;46.19
71043;BME280;58696;52.134;5.500;2023-06-22T09:10:08;101859.25;;;27.56;48.39
71043;BME280;58696;52.134;5.500;2023-06-22T09:12:35;101848.22;;;27.38;48.69
71043;BME280;58696;52.134;5.500;2023-06-22T09:15:04;101855.88;;;27.35;48.32
71043;BME280;58696;52.134;5.500;2023-06-22T09:17:40;101855.47;;;26.97;50.07
71043;BME280;58696;52.134;5.500;2023-06-22T09:20:07;101854.16;;;26.84;49.52
71043;BME280;58696;52.134;5.500;2023-06-22T09:22:39;101852.84;;;26.87;48.45
71043;BME280;58696;52.134;5.500;2023-06-22T09:25:10;101854.13;;;26.94;48.79
71043;BME280;58696;52.134;5.500;2023-06-22T09:27:37;101847.50;;;27.02;47.22
71043;BME280;58696;52.134;5.500;2023-06-22T09:30:04;101855.44;;;27.12;46.28
71043;BME280;58696;52.134;5.500;2023-06-22T09:32:31;101848.31;;;27.13;45.44
71043;BME280;58696;52.134;5.500;2023-06-22T09:35:01;101849.38;;;27.12;49.05
71043;BME280;58696;52.134;5.500;2023-06-22T09:37:31;101849.31;;;27.27;47.09
71043;BME280;58696;52.134;5.500;2023-06-22T09:39:57;101851.47;;;27.20;49.51
71043;BME280;58696;52.134;5.500;2023-06-22T09:42:24;101846.41;;;27.23;49.26
71043;BME280;58696;52.134;5.500;2023-06-22T09:44:53;101849.84;;;27.29;49.13
71043;BME280;58696;52.134;5.500;2023-06-22T09:47:22;101842.66;;;27.40;48.00
71043;BME280;58696;52.134;5.500;2023-06-22T09:49:49;101844.41;;;27.70;47.48
71043;BME280;58696;52.134;5.500;2023-06-22T09:52:18;101841.25;;;27.63;46.11
71043;BME280;58696;52.134;5.500;2023-06-22T09:54:47;101837.06;;;27.57;46.43
71043;BME280;58696;52.134;5.500;2023-06-22T09:57:16;101847.16;;;27.39;46.19
71043;BME280;58696;52.134;5.500;2023-06-22T09:59:43;101835.66;;;27.10;47.45
71043;BME280;58696;52.134;5.500;2023-06-22T10:02:10;101834.63;;;26.34;48.85
71043;BME280;58696;52.134;5.500;2023-06-22T10:04:39;101837.81;;;26.21;49.03
71043;BME280;58696;52.134;5.500;2023-06-22T10:07:07;101839.63;;;26.00;46.21
71043;BME280;58696;52.134;5.500;2023-06-22T10:09:36;101845.34;;;25.77;48.79
71043;BME280;58696;52.134;5.500;2023-06-22T10:12:04;101849.75;;;25.56;48.45
71043;BME280;58696;52.134;5.500;2023-06-22T10:14:31;101853.38;;;25.50;49.33
71043;BME280;58696;52.134;5.500;2023-06-22T10:17:00;101843.59;;;25.35;48.37
71043;BME280;58696;52.134;5.500;2023-06-22T10:19:26;101830.97;;;25.37;48.41
71043;BME280;58696;52.134;5.500;2023-06-22T10:21:55;101830.13;;;25.26;48.29
71043;BME280;58696;52.134;5.500;2023-06-22T10:24:23;101835.06;;;25.12;48.48
71043;BME280;58696;52.134;5.500;2023-06-22T10:26:49;101827.41;;;25.11;48.48
71043;BME280;58696;52.134;5.500;2023-06-22T10:29:18;101835.19;;;25.01;50.36
71043;BME280;58696;52.134;5.500;2023-06-22T10:31:45;101832.03;;;24.99;50.55
71043;BME280;58696;52.134;5.500;2023-06-22T10:34:11;101839.41;;;24.97;51.44
71043;BME280;58696;52.134;5.500;2023-06-22T10:36:41;101829.38;;;24.93;51.45
71043;BME280;58696;52.134;5.500;2023-06-22T10:39:08;101837.78;;;24.90;52.66
71043;BME280;58696;52.134;5.500;2023-06-22T10:41:37;101834.88;;;24.87;53.31
71043;BME280;58696;52.134;5.500;2023-06-22T10:44:04;101836.16;;;24.84;52.40
71043;BME280;58696;52.134;5.500;2023-06-22T10:46:30;101831.16;;;24.83;53.04
71043;BME280;58696;52.134;5.500;2023-06-22T10:49:02;101835.88;;;24.81;52.52
71043;BME280;58696;52.134;5.500;2023-06-22T10:51:31;101839.59;;;24.85;53.33
71043;BME280;58696;52.134;5.500;2023-06-22T10:54:00;101832.00;;;24.93;53.63
71043;BME280;58696;52.134;5.500;2023-06-22T10:56:26;101828.63;;;24.98;53.08
71043;BME280;58696;52.134;5.500;2023-06-22T10:58:55;101832.56;;;25.01;54.73
71043;BME280;58696;52.134;5.500;2023-06-22T11:01:24;101829.25;;;25.10;53.94
71043;BME280;58696;52.134;5.500;2023-06-22T11:04:04;101834.81;;;25.19;54.39
71043;BME280;58696;52.134;5.500;2023-06-22T11:06:31;101835.41;;;25.31;55.53
71043;BME280;58696;52.134;5.500;2023-06-22T11:08:58;101830.72;;;25.43;55.54
71043;BME280;58696;52.134;5.500;2023-06-22T11:11:37;101821.56;;;25.56;54.18
71043;BME280;58696;52.134;5.500;2023-06-22T11:14:08;101825.25;;;25.60;54.19
71043;BME280;58696;52.134;5.500;2023-06-22T11:16:35;101816.59;;;25.70;54.60
71043;BME280;58696;52.134;5.500;2023-06-22T11:19:05;101810.06;;;25.78;54.01
71043;BME280;58696;52.134;5.500;2023-06-22T11:21:31;101816.94;;;25.84;54.24
71043;BME280;58696;52.134;5.500;2023-06-22T11:23:59;101811.13;;;25.82;52.50
71043;BME280;58696;52.134;5.500;2023-06-22T11:26:30;101815.34;;;25.78;54.36
71043;BME280;58696;52.134;5.500;2023-06-22T11:28:58;101808.25;;;25.83;55.12
71043;BME280;58696;52.134;5.500;2023-06-22T11:31:28;101809.28;;;25.82;53.80
71043;BME280;58696;52.134;5.500;2023-06-22T11:33:57;101803.16;;;25.71;53.93
71043;BME280;58696;52.134;5.500;2023-06-22T11:36:24;101807.38;;;25.67;53.28
71043;BME280;58696;52.134;5.500;2023-06-22T11:38:54;101801.34;;;25.72;55.17
71043;BME280;58696;52.134;5.500;2023-06-22T11:41:20;101789.50;;;25.75;55.28
71043;BME280;58696;52.134;5.500;2023-06-22T11:43:50;101794.28;;;25.78;54.18
71043;BME280;58696;52.134;5.500;2023-06-22T11:46:16;101795.03;;;25.73;53.23
71043;BME280;58696;52.134;5.500;2023-06-22T11:48:48;101792.94;;;25.75;53.02
71043;BME280;58696;52.134;5.500;2023-06-22T11:51:16;101791.09;;;25.81;53.83
71043;BME280;58696;52.134;5.500;2023-06-22T11:53:45;101789.81;;;25.88;54.21
71043;BME280;58696;52.134;5.500;2023-06-22T11:56:17;101787.97;;;25.84;54.48
71043;BME280;58696;52.134;5.500;2023-06-22T11:58:43;101783.47;;;25.79;52.94
71043;BME280;58696;52.134;5.500;2023-06-22T12:01:12;101785.78;;;25.70;54.33
71043;BME280;58696;52.134;5.500;2023-06-22T12:03:41;101782.91;;;25.67;55.42
71043;BME280;58696;52.134;5.500;2023-06-22T12:06:10;101781.06;;;25.67;55.35
71043;BME280;58696;52.134;5.500;2023-06-22T12:08:39;101783.13;;;25.60;55.99
71043;BME280;58696;52.134;5.500;2023-06-22T12:11:06;101780.72;;;25.49;55.44
71043;BME280;58696;52.134;5.500;2023-06-22T12:13:35;101781.75;;;25.37;55.00
71043;BME280;58696;52.134;5.500;2023-06-22T12:16:04;101776.69;;;25.26;54.97
71043;BME280;58696;52.134;5.500;2023-06-22T12:18:32;101770.66;;;25.25;55.63
71043;BME280;58696;52.134;5.500;2023-06-22T12:20:59;101771.44;;;25.26;60.03
71043;BME280;58696;52.134;5.500;2023-06-22T12:23:25;101784.53;;;25.10;61.29
71043;BME280;58696;52.134;5.500;2023-06-22T12:25:54;101773.31;;;24.83;59.30
71043;BME280;58696;52.134;5.500;2023-06-22T12:28:25;101771.81;;;24.55;61.66
71043;BME280;58696;52.134;5.500;2023-06-22T12:30:53;101771.00;;;24.22;63.23
71043;BME280;58696;52.134;5.500;2023-06-22T12:33:24;101772.50;;;24.13;65.98
71043;BME280;58696;52.134;5.500;2023-06-22T12:35:53;101773.81;;;24.10;63.55
71043;BME280;58696;52.134;5.500;2023-06-22T12:38:20;101765.47;;;23.92;63.42
71043;BME280;58696;52.134;5.500;2023-06-22T12:40:46;101764.41;;;23.87;63.02
71043;BME280;58696;52.134;5.500;2023-06-22T12:43:16;101767.56;;;23.90;65.98
71043;BME280;58696;52.134;5.500;2023-06-22T12:45:44;101758.41;;;23.92;66.37
71043;BME280;58696;52.134;5.500;2023-06-22T12:48:13;101763.94;;;23.96;67.30
71043;BME280;58696;52.134;5.500;2023-06-22T12:50:42;101758.69;;;23.96;67.69
71043;BME280;58696;52.134;5.500;2023-06-22T12:53:09;101750.09;;;24.00;68.86
71043;BME280;58696;52.134;5.500;2023-06-22T12:55:38;101744.09;;;24.05;69.20
71043;BME280;58696;52.134;5.500;2023-06-22T12:58:05;101747.19;;;24.02;69.57
71043;BME280;58696;52.134;5.500;2023-06-22T13:00:31;101737.25;;;24.04;71.11
71043;BME280;58696;52.134;5.500;2023-06-22T13:02:58;101735.66;;;24.03;70.40
71043;BME280;58696;52.134;5.500;2023-06-22T13:05:25;101736.69;;;24.02;68.46